sensor_id;sensor_type;location;lat;lon;timestamp;pressure;altitude;pressure_sealevel;temperature;humidity
36304;BME280;22335;49.800;8.596;2022-07-10T00:05:19;101218.38;;;25.35;42.38
36304;BME280;22335;49.800;8.596;2022-07-10T00:12:05;101217.97;;;25.17;42.65
36304;BME280;22335;49.800;8.596;2022-07-10T00:18:51;101212.69;;;24.96;42.98
36304;BME280;22335;49.800;8.596;2022-07-10T00:25:39;101207.28;;;24.88;43.03
36304;BME280;22335;49.800;8.596;2022-07-10T00:32:25;101209.72;;;24.89;43.18
36304;BME280;22335;49.800;8.596;2022-07-10T00:39:10;101212.34;;;24.82;43.04
36304;BME280;22335;49.800;8.596;2022-07-10T00:45:59;101219.31;;;24.88;42.02
36304;BME280;22335;49.800;8.596;2022-07-10T00:52:46;101228.16;;;24.58;42.79
36304;BME280;22335;49.800;8.596;2022-07-10T00:59:31;101229.34;;;24.57;42.78
36304;BME280;22335;49.800;8.596;2022-07-10T01:06:19;101144.00;;;24.00;43.26
36304;BME280;22335;49.800;8.596;2022-07-10T01:13:05;101210.91;;;24.41;43.31
36304;BME280;22335;49.800;8.596;2022-07-10T01:19:52;101234.84;;;24.54;42.95
36304;BME280;22335;49.800;8.596;2022-07-10T01:26:40;101214.44;;;24.37;42.70
36304;BME280;22335;49.800;8.596;2022-07-10T01:33:26;101226.59;;;24.29;43.13
36304;BME280;22335;49.800;8.596;2022-07-10T01:40:12;101230.53;;;24.12;43.14
36304;BME280;22335;49.800;8.596;2022-07-10T01:47:00;101220.66;;;23.87;43.28
36304;BME280;22335;49.800;8.596;2022-07-10T01:53:45;101242.91;;;23.83;42.84
36304;BME280;22335;49.800;8.596;2022-07-10T02:00:31;101231.66;;;23.67;43.15
36304;BME280;22335;49.800;8.596;2022-07-10T02:07:20;101242.63;;;23.73;43.04
36304;BME280;22335;49.800;8.596;2022-07-10T02:14:07;101243.44;;;23.61;42.83
36304;BME280;22335;49.800;8.596;2022-07-10T02:20:53;101231.03;;;23.46;42.96
36304;BME280;22335;49.800;8.596;2022-07-10T02:27:41;101246.78;;;23.38;42.97
36304;BME280;22335;49.800;8.596;2022-07-10T02:34:27;101249.31;;;23.31;42.67
36304;BME280;22335;49.800;8.596;2022-07-10T02:41:12;101246.81;;;23.26;43.12
36304;BME280;22335;49.800;8.596;2022-07-10T03:01:49;101254.59;;;23.20;43.13
36304;BME280;22335;49.800;8.596;2022-07-10T03:08:34;101258.78;;;23.27;43.35
36304;BME280;22335;49.800;8.596;2022-07-10T03:15:20;101233.09;;;23.09;42.68
36304;BME280;22335;49.800;8.596;2022-07-10T03:22:08;101263.84;;;23.37;42.50
36304;BME280;22335;49.800;8.596;2022-07-10T03:28:54;101261.19;;;23.28;42.93
36304;BME280;22335;49.800;8.596;2022-07-10T03:35:39;101278.91;;;23.20;42.66
36304;BME280;22335;49.800;8.596;2022-07-10T03:42:27;101266.47;;;23.05;42.37
36304;BME280;22335;49.800;8.596;2022-07-10T03:49:13;101270.88;;;22.94;42.36
36304;BME280;22335;49.800;8.596;2022-07-10T03:55:59;101287.47;;;22.90;42.50
36304;BME280;22335;49.800;8.596;2022-07-10T04:02:48;101252.72;;;22.88;42.17
36304;BME280;22335;49.800;8.596;2022-07-10T04:09:34;101278.06;;;22.70;42.08
36304;BME280;22335;49.800;8.596;2022-07-10T04:16:19;101280.16;;;22.61;42.19
36304;BME280;22335;49.800;8.596;2022-07-10T04:23:07;101269.78;;;22.49;42.17
36304;BME280;22335;49.800;8.596;2022-07-10T04:29:53;101274.06;;;22.47;42.15
36304;BME280;22335;49.800;8.596;2022-07-10T04:36:39;101283.34;;;22.39;42.16
36304;BME280;22335;49.800;8.596;2022-07-10T04:43:27;101287.38;;;22.29;42.56
36304;BME280;22335;49.800;8.596;2022-07-10T04:50:15;101291.91;;;22.21;42.32
36304;BME280;22335;49.800;8.596;2022-07-10T04:57:01;101311.59;;;22.16;41.91
36304;BME280;22335;49.800;8.596;2022-07-10T05:03:50;101308.25;;;22.02;42.35
36304;BME280;22335;49.800;8.596;2022-07-10T05:10:35;101325.38;;;22.13;42.13
36304;BME280;22335;49.800;8.596;2022-07-10T05:17:21;101326.75;;;22.27;41.71
36304;BME280;22335;49.800;8.596;2022-07-10T05:24:09;101319.41;;;22.02;42.13
36304;BME280;22335;49.800;8.596;2022-07-10T05:30:55;101332.25;;;22.15;41.75
36304;BME280;22335;49.800;8.596;2022-07-10T05:37:41;101334.56;;;22.34;41.20
36304;BME280;22335;49.800;8.596;2022-07-10T05:44:29;101334.91;;;22.12;41.58
36304;BME280;22335;49.800;8.596;2022-07-10T05:51:14;101336.41;;;22.09;41.27
36304;BME280;22335;49.800;8.596;2022-07-10T05:58:13;101355.31;;;22.24;41.48
36304;BME280;22335;49.800;8.596;2022-07-10T06:05:01;101349.03;;;22.27;40.77
36304;BME280;22335;49.800;8.596;2022-07-10T06:11:47;101353.19;;;22.21;41.07
36304;BME280;22335;49.800;8.596;2022-07-10T06:18:33;101347.66;;;22.13;40.56
36304;BME280;22335;49.800;8.596;2022-07-10T06:25:22;101351.56;;;22.20;39.86
36304;BME280;22335;49.800;8.596;2022-07-10T06:32:08;101347.28;;;22.23;39.69
36304;BME280;22335;49.800;8.596;2022-07-10T06:38:53;101350.19;;;22.26;39.38
36304;BME280;22335;49.800;8.596;2022-07-10T06:45:41;101336.72;;;22.28;39.14
36304;BME280;22335;49.800;8.596;2022-07-10T06:52:27;101353.91;;;22.64;38.35
36304;BME280;22335;49.800;8.596;2022-07-10T06:59:13;101336.88;;;22.77;37.80
36304;BME280;22335;49.800;8.596;2022-07-10T07:06:01;101343.41;;;22.94;37.83
36304;BME280;22335;49.800;8.596;2022-07-10T07:12:47;101351.09;;;23.21;37.18
36304;BME280;22335;49.800;8.596;2022-07-10T07:19:33;101348.69;;;23.20;37.16
36304;BME280;22335;49.800;8.596;2022-07-10T07:26:33;101333.66;;;23.00;36.57
36304;BME280;22335;49.800;8.596;2022-07-10T07:33:19;101347.94;;;22.86;36.89
36304;BME280;22335;49.800;8.596;2022-07-10T07:40:06;101345.72;;;22.79;36.65
36304;BME280;22335;49.800;8.596;2022-07-10T07:46:56;101267.19;;;22.11;36.52
36304;BME280;22335;49.800;8.596;2022-07-10T07:53:42;101342.66;;;22.72;36.17
36304;BME280;22335;49.800;8.596;2022-07-10T08:00:28;101344.78;;;22.88;36.34
36304;BME280;22335;49.800;8.596;2022-07-10T08:07:17;101331.78;;;23.04;35.45
36304;BME280;22335;49.800;8.596;2022-07-10T08:14:03;101339.59;;;23.23;35.55
36304;BME280;22335;49.800;8.596;2022-07-10T08:20:48;101328.66;;;23.42;35.13
36304;BME280;22335;49.800;8.596;2022-07-10T08:27:37;101295.38;;;23.37;34.68
36304;BME280;22335;49.800;8.596;2022-07-10T08:34:23;101285.72;;;23.35;34.28
36304;BME280;22335;49.800;8.596;2022-07-10T08:41:09;101323.38;;;23.65;34.95
36304;BME280;22335;49.800;8.596;2022-07-10T08:48:01;101327.59;;;23.47;34.89
36304;BME280;22335;49.800;8.596;2022-07-10T08:54:48;101327.84;;;23.42;34.97
36304;BME280;22335;49.800;8.596;2022-07-10T09:01:34;101328.28;;;23.44;34.82
36304;BME280;22335;49.800;8.596;2022-07-10T09:08:26;101327.84;;;23.42;34.80
36304;BME280;22335;49.800;8.596;2022-07-10T09:15:15;101338.84;;;23.63;34.04
36304;BME280;22335;49.800;8.596;2022-07-10T09:22:04;101335.50;;;23.69;33.93
36304;BME280;22335;49.800;8.596;2022-07-10T09:29:05;101311.31;;;23.49;33.99
36304;BME280;22335;49.800;8.596;2022-07-10T09:36:03;101332.22;;;23.67;33.60
36304;BME280;22335;49.800;8.596;2022-07-10T09:42:49;101271.88;;;23.51;33.55
36304;BME280;22335;49.800;8.596;2022-07-10T09:49:38;101332.59;;;24.06;33.16
36304;BME280;22335;49.800;8.596;2022-07-10T09:56:24;101323.03;;;24.07;33.10
36304;BME280;22335;49.800;8.596;2022-07-10T10:03:10;101327.88;;;24.23;33.04
36304;BME280;22335;49.800;8.596;2022-07-10T10:10:01;101312.63;;;24.48;32.39
36304;BME280;22335;49.800;8.596;2022-07-10T10:16:47;101304.22;;;24.64;32.61
36304;BME280;22335;49.800;8.596;2022-07-10T10:23:34;101305.31;;;24.59;32.42
36304;BME280;22335;49.800;8.596;2022-07-10T10:30:23;101300.00;;;24.70;32.50
36304;BME280;22335;49.800;8.596;2022-07-10T10:37:36;101295.66;;;24.89;32.41
36304;BME280;22335;49.800;8.596;2022-07-10T10:44:25;101275.97;;;25.17;32.27
36304;BME280;22335;49.800;8.596;2022-07-10T10:51:19;101269.06;;;25.30;31.83
36304;BME280;22335;49.800;8.596;2022-07-10T10:58:14;101264.25;;;25.46;31.74
36304;BME280;22335;49.800;8.596;2022-07-10T11:12:28;101261.25;;;25.55;31.41
36304;BME280;22335;49.800;8.596;2022-07-10T11:19:20;101259.53;;;25.50;31.63
36304;BME280;22335;49.800;8.596;2022-07-10T11:26:10;101267.56;;;25.52;31.63
36304;BME280;22335;49.800;8.596;2022-07-10T11:33:06;101215.25;;;25.21;31.50
36304;BME280;22335;49.800;8.596;2022-07-10T11:39:52;101265.59;;;25.52;31.55
36304;BME280;22335;49.800;8.596;2022-07-10T11:46:37;101265.59;;;25.72;31.26
36304;BME280;22335;49.800;8.596;2022-07-10T11:53:28;101203.88;;;25.68;31.52
36304;BME280;22335;49.800;8.596;2022-07-10T12:00:24;101234.81;;;26.14;31.10
36304;BME280;22335;49.800;8.596;2022-07-10T12:07:12;101230.91;;;26.42;31.10
36304;BME280;22335;49.800;8.596;2022-07-10T12:14:12;101241.47;;;26.49;31.15
36304;BME280;22335;49.800;8.596;2022-07-10T12:21:00;101238.03;;;26.36;30.44
36304;BME280;22335;49.800;8.596;2022-07-10T12:27:46;101244.22;;;26.26;30.50
36304;BME280;22335;49.800;8.596;2022-07-10T12:34:39;101239.31;;;26.19;30.82
36304;BME280;22335;49.800;8.596;2022-07-10T12:41:25;101239.81;;;26.25;30.99
36304;BME280;22335;49.800;8.596;2022-07-10T12:48:21;101228.47;;;26.40;30.62
36304;BME280;22335;49.800;8.596;2022-07-10T12:55:10;101231.03;;;26.72;30.93
36304;BME280;22335;49.800;8.596;2022-07-10T13:01:58;101237.84;;;26.71;30.56
36304;BME280;22335;49.800;8.596;2022-07-10T13:08:44;101227.81;;;26.97;30.58
36304;BME280;22335;49.800;8.596;2022-07-10T13:15:32;101233.47;;;27.00;30.64
36304;BME280;22335;49.800;8.596;2022-07-10T13:22:21;101214.31;;;26.79;30.63
36304;BME280;22335;49.800;8.596;2022-07-10T13:29:07;101220.47;;;26.88;30.45
36304;BME280;22335;49.800;8.596;2022-07-10T13:35:55;101191.47;;;26.81;30.38
36304;BME280;22335;49.800;8.596;2022-07-10T13:42:41;101213.97;;;27.11;30.50
36304;BME280;22335;49.800;8.596;2022-07-10T13:49:27;101205.34;;;27.23;30.14
36304;BME280;22335;49.800;8.596;2022-07-10T13:56:15;101158.81;;;26.96;30.07
36304;BME280;22335;49.800;8.596;2022-07-10T14:03:00;101156.97;;;26.80;30.01
36304;BME280;22335;49.800;8.596;2022-07-10T14:09:46;101211.63;;;27.13;30.37
36304;BME280;22335;49.800;8.596;2022-07-10T14:16:34;101198.44;;;26.90;30.19
36304;BME280;22335;49.800;8.596;2022-07-10T14:23:19;101203.69;;;26.92;29.96
36304;BME280;22335;49.800;8.596;2022-07-10T14:30:07;101196.91;;;26.97;30.00
36304;BME280;22335;49.800;8.596;2022-07-10T14:36:56;101208.81;;;26.86;29.62
36304;BME280;22335;49.800;8.596;2022-07-10T14:43:41;101216.19;;;26.72;29.79
36304;BME280;22335;49.800;8.596;2022-07-10T14:50:27;101205.31;;;26.66;29.94
36304;BME280;22335;49.800;8.596;2022-07-10T14:57:16;101210.47;;;26.64;30.05
36304;BME280;22335;49.800;8.596;2022-07-10T15:04:01;101227.47;;;26.75;30.59
36304;BME280;22335;49.800;8.596;2022-07-10T15:10:47;101217.53;;;26.81;30.40
36304;BME280;22335;49.800;8.596;2022-07-10T15:17:35;101083.66;;;25.83;30.77
36304;BME280;22335;49.800;8.596;2022-07-10T15:24:21;101195.66;;;26.44;30.91
36304;BME280;22335;49.800;8.596;2022-07-10T15:31:06;101204.38;;;26.59;30.69
36304;BME280;22335;49.800;8.596;2022-07-10T15:37:54;101212.03;;;26.39;31.05
36304;BME280;22335;49.800;8.596;2022-07-10T15:44:41;101168.56;;;26.06;31.75
36304;BME280;22335;49.800;8.596;2022-07-10T15:51:26;101191.44;;;26.31;31.51
36304;BME280;22335;49.800;8.596;2022-07-10T15:58:14;101155.63;;;26.21;31.60
36304;BME280;22335;49.800;8.596;2022-07-10T16:05:00;101209.78;;;26.48;31.53
36304;BME280;22335;49.800;8.596;2022-07-10T16:11:45;101197.69;;;26.67;31.39
36304;BME280;22335;49.800;8.596;2022-07-10T16:18:34;101190.97;;;26.49;32.24
36304;BME280;22335;49.800;8.596;2022-07-10T16:25:19;101201.44;;;26.52;31.85
36304;BME280;22335;49.800;8.596;2022-07-10T16:32:17;101207.47;;;26.54;32.25
36304;BME280;22335;49.800;8.596;2022-07-10T16:39:05;101193.84;;;26.52;32.24
36304;BME280;22335;49.800;8.596;2022-07-10T16:45:57;101195.75;;;26.48;32.18
36304;BME280;22335;49.800;8.596;2022-07-10T16:52:44;101190.50;;;26.47;32.59
36304;BME280;22335;49.800;8.596;2022-07-10T16:59:32;101179.84;;;26.56;32.82
36304;BME280;22335;49.800;8.596;2022-07-10T17:06:18;101188.38;;;26.63;32.77
36304;BME280;22335;49.800;8.596;2022-07-10T17:13:03;101179.16;;;26.62;32.67
36304;BME280;22335;49.800;8.596;2022-07-10T17:19:51;101181.38;;;26.76;32.60
36304;BME280;22335;49.800;8.596;2022-07-10T17:26:37;101181.81;;;26.52;32.93
36304;BME280;22335;49.800;8.596;2022-07-10T17:33:23;101193.25;;;26.43;32.96
36304;BME280;22335;49.800;8.596;2022-07-10T17:40:11;101188.75;;;26.38;33.38
36304;BME280;22335;49.800;8.596;2022-07-10T17:46:57;101188.13;;;26.26;33.37
36304;BME280;22335;49.800;8.596;2022-07-10T17:53:42;101190.03;;;26.18;33.81
36304;BME280;22335;49.800;8.596;2022-07-10T18:00:31;101178.97;;;26.29;33.50
36304;BME280;22335;49.800;8.596;2022-07-10T18:07:16;101189.00;;;26.07;34.13
36304;BME280;22335;49.800;8.596;2022-07-10T18:14:02;101190.50;;;26.01;34.04
36304;BME280;22335;49.800;8.596;2022-07-10T18:20:50;101197.41;;;26.07;34.34
36304;BME280;22335;49.800;8.596;2022-07-10T18:27:39;101196.91;;;26.01;34.39
36304;BME280;22335;49.800;8.596;2022-07-10T18:34:25;101198.09;;;26.00;34.24
36304;BME280;22335;49.800;8.596;2022-07-10T18:41:16;101189.63;;;25.96;34.53
36304;BME280;22335;49.800;8.596;2022-07-10T18:48:02;101209.13;;;25.89;35.03
36304;BME280;22335;49.800;8.596;2022-07-10T18:54:48;101203.25;;;25.79;35.19
36304;BME280;22335;49.800;8.596;2022-07-10T19:01:36;101207.69;;;25.80;35.06
36304;BME280;22335;49.800;8.596;2022-07-10T19:08:23;101217.09;;;25.87;35.35
36304;BME280;22335;49.800;8.596;2022-07-10T19:15:09;101214.78;;;25.93;35.45
36304;BME280;22335;49.800;8.596;2022-07-10T19:22:00;101220.25;;;25.86;35.70
36304;BME280;22335;49.800;8.596;2022-07-10T19:28:45;101221.63;;;25.76;35.93
36304;BME280;22335;49.800;8.596;2022-07-10T19:35:31;101229.50;;;25.70;35.94
36304;BME280;22335;49.800;8.596;2022-07-10T19:42:19;101222.63;;;25.84;35.58
36304;BME280;22335;49.800;8.596;2022-07-10T19:49:05;101234.56;;;25.61;36.12
36304;BME280;22335;49.800;8.596;2022-07-10T19:55:51;101196.44;;;25.37;36.17
36304;BME280;22335;49.800;8.596;2022-07-10T20:02:39;101242.56;;;25.63;36.36
36304;BME280;22335;49.800;8.596;2022-07-10T20:09:25;101241.03;;;25.65;36.69
36304;BME280;22335;49.800;8.596;2022-07-10T20:16:10;101253.50;;;25.68;36.97
36304;BME280;22335;49.800;8.596;2022-07-10T20:22:59;101240.50;;;25.60;36.81
36304;BME280;22335;49.800;8.596;2022-07-10T20:29:45;101143.47;;;24.93;37.22
36304;BME280;22335;49.800;8.596;2022-07-10T20:36:30;101249.94;;;25.51;37.09
36304;BME280;22335;49.800;8.596;2022-07-10T20:43:31;101236.16;;;25.43;37.37
36304;BME280;22335;49.800;8.596;2022-07-10T20:50:17;101237.31;;;25.42;37.56
36304;BME280;22335;49.800;8.596;2022-07-10T20:57:03;101236.53;;;25.41;37.55
36304;BME280;22335;49.800;8.596;2022-07-10T21:03:52;101234.44;;;25.38;38.29
36304;BME280;22335;49.800;8.596;2022-07-10T21:10:37;101245.72;;;25.42;38.07
36304;BME280;22335;49.800;8.596;2022-07-10T21:17:29;101238.38;;;25.34;38.10
36304;BME280;22335;49.800;8.596;2022-07-10T21:24:17;101247.88;;;25.48;37.99
36304;BME280;22335;49.800;8.596;2022-07-10T21:31:03;101234.69;;;25.49;38.22
36304;BME280;22335;49.800;8.596;2022-07-10T21:37:49;101228.03;;;25.38;38.34
36304;BME280;22335;49.800;8.596;2022-07-10T21:44:37;101224.56;;;25.25;39.00
36304;BME280;22335;49.800;8.596;2022-07-10T21:51:23;101222.78;;;25.17;39.24
36304;BME280;22335;49.800;8.596;2022-07-10T21:58:08;101229.81;;;25.11;38.91
36304;BME280;22335;49.800;8.596;2022-07-10T22:04:57;101220.16;;;25.08;39.11
36304;BME280;22335;49.800;8.596;2022-07-10T22:11:43;101229.38;;;25.08;39.58
36304;BME280;22335;49.800;8.596;2022-07-10T22:18:28;101210.13;;;25.23;38.43
36304;BME280;22335;49.800;8.596;2022-07-10T22:25:16;101220.88;;;25.05;39.50
36304;BME280;22335;49.800;8.596;2022-07-10T22:32:03;101230.72;;;25.15;39.72
36304;BME280;22335;49.800;8.596;2022-07-10T22:38:49;101220.50;;;25.22;39.45
36304;BME280;22335;49.800;8.596;2022-07-10T22:45:37;101170.41;;;25.01;39.67
36304;BME280;22335;49.800;8.596;2022-07-10T22:52:23;101211.00;;;25.27;39.87
36304;BME280;22335;49.800;8.596;2022-07-10T22:59:09;101208.28;;;25.30;39.94
36304;BME280;22335;49.800;8.596;2022-07-10T23:05:59;101192.59;;;25.26;39.77
36304;BME280;22335;49.800;8.596;2022-07-10T23:12:45;101159.75;;;25.07;39.92
36304;BME280;22335;49.800;8.596;2022-07-10T23:19:30;101198.31;;;25.33;39.43
36304;BME280;22335;49.800;8.596;2022-07-10T23:26:18;101189.50;;;25.31;39.71
36304;BME280;22335;49.800;8.596;2022-07-10T23:33:04;101193.91;;;25.32;39.75
36304;BME280;22335;49.800;8.596;2022-07-10T23:39:49;101192.81;;;25.37;39.67
36304;BME280;22335;49.800;8.596;2022-07-10T23:46:37;101170.41;;;25.37;39.76
36304;BME280;22335;49.800;8.596;2022-07-10T23:53:23;101182.13;;;25.42;39.95
